• Join FlightAware (Why Join?)
  • Login
  • US Flag 
09:04PM EDT


 

Airport Tracker/Info


-or-


 

Live Flight TrackerFlight Track Log ✈ SWA3206 ✈ 29-Apr-2013 ✈ KPHL - KMDW

Flight Track Log - Related Links

Times and Time Zones

All times are in EDT time to prevent confusion due to time zone crossing. See the SWA3206 flight status page for this flight to view local times or setup timezone preferences in your user account.

Time Position Orientation Groundspeed Altitude Reporting Facility
EDT Latitude Longitude Course Direction KTS MPH feet Rate Location/Type
11:45AM 39.8833 -75.2167 72° East 149 171 900  Level Philadelphia TRACON
11:46AM 39.9000 -75.1500 72° East 233 268 2,400 1,920 Climbing Philadelphia TRACON
11:47AM 39.9500 -75.0833 46° Northeast 268 308 4,800 2,820 Climbing Philadelphia TRACON
11:48AM 40.0167 -75.1000 349° North 295 339 8,100 2,400 Climbing Philadelphia TRACON
11:50AM 40.0667 -75.1833 308° West 300 345 10,000 900 Climbing Philadelphia TRACON
11:51AM 40.1167 -75.3167 296° West 347 399 10,100 960 Climbing Philadelphia TRACON
11:51AM 40.1500 -75.3667 311° West 345 397 11,700 1,200 Climbing Philadelphia TRACON
11:52AM 40.1828 -75.4656 293° West 368 423 12,000 1,200 Climbing New York Center
11:53AM 40.2406 -75.5839 303° West 363 418 14,100 2,460 Climbing New York Center
11:54AM 40.3069 -75.6864 310° West 363 418 16,900 1,380 Climbing New York Center
11:55AM 40.3736 -75.7892 310° West 368 423 17,000 360 Climbing New York Center
11:56AM 40.4322 -75.8836 309° West 373 429 17,700 1,500 Climbing New York Center
11:57AM 40.4597 -76.0164 285° West 373 429 20,000 2,400 Climbing New York Center
11:58AM 40.4806 -76.1544 281° West 379 436 22,600 2,520 Climbing New York Center
11:59AM 40.5031 -76.2983 282° West 389 448 25,100 2,340 Climbing New York Center
12:00PM 40.5275 -76.4422 283° West 400 460 27,200 2,040 Climbing New York Center
12:01PM 40.5494 -76.5889 281° West 400 460 29,200 2,220 Climbing New York Center
12:02PM 40.5717 -76.7328 282° West 405 466 31,800 1,860 Climbing New York Center
12:03PM 40.5892 -76.8764 279° West 405 466 33,000 1,020 Climbing New York Center
12:04PM 40.6131 -77.0208 282° West 405 466 33,900 1,080 Climbing New York Center
12:05PM 40.6322 -77.1647 280° West 405 466 35,200 1,020 Climbing New York Center
12:06PM 40.6536 -77.3092 281° West 405 466 36,000 360 Climbing New York Center
12:07PM 40.6747 -77.4561 281° West 405 466 36,000  Level New York Center
12:09PM 40.7086 -77.7178 280° West 409 471 36,000  Level Cleveland Center
12:10PM 40.7292 -77.8678 280° West 409 471 36,000  Level Cleveland Center
12:11PM 40.7492 -78.0122 280° West 409 471 36,000  Level Cleveland Center
12:12PM 40.7669 -78.1594 279° West 409 471 36,000  Level Cleveland Center
12:13PM 40.7867 -78.3069 280° West 409 471 36,000  Level Cleveland Center
12:14PM 40.8061 -78.4544 280° West 409 471 36,000  Level Cleveland Center
12:15PM 40.8256 -78.6019 280° West 409 471 36,000  Level Cleveland Center
12:16PM 40.8425 -78.7497 279° West 409 471 36,000  Level Cleveland Center
12:17PM 40.8633 -78.8781 282° West 404 465 36,000  Level Cleveland Center
12:18PM 40.8822 -79.0258 280° West 409 471 36,000  Level Cleveland Center
12:19PM 40.8986 -79.1711 279° West 409 471 36,000  Level Cleveland Center
12:20PM 40.9169 -79.3219 279° West 409 471 36,000  Level Cleveland Center
12:21PM 40.9353 -79.4756 279° West 409 471 36,000  Level Cleveland Center
12:22PM 40.9533 -79.6236 279° West 414 476 36,000  Level Cleveland Center
12:23PM 40.9692 -79.7747 278° West 414 476 36,000  Level Cleveland Center
12:24PM 40.9886 -79.9203 280° West 414 476 36,000  Level Cleveland Center
12:25PM 41.0061 -80.0742 279° West 414 476 36,000  Level Cleveland Center
12:26PM 41.0233 -80.2225 279° West 414 476 36,000  Level Cleveland Center
12:27PM 41.0383 -80.3711 278° West 414 476 36,000  Level Cleveland Center
12:28PM 41.0553 -80.5253 278° West 414 476 36,000  Level Cleveland Center
12:29PM 41.0739 -80.6767 279° West 419 482 36,000  Level Cleveland Center
12:30PM 41.0883 -80.8311 277° West 419 482 36,000  Level Cleveland Center
12:31PM 41.1067 -80.9828 279° West 424 488 36,000  Level Cleveland Center
12:32PM 41.1206 -81.1536 276° West 429 494 36,000  Level Cleveland Center
12:33PM 41.1364 -81.3056 278° West 423 487 36,000  Level Cleveland Center
12:34PM 41.1542 -81.4381 280° West 423 487 36,000  Level Cleveland Center
12:35PM 41.1697 -81.5872 278° West 418 481 36,000  Level Cleveland Center
12:36PM 41.1828 -81.7336 277° West 412 474 36,000  Level Cleveland Center
12:37PM 41.1981 -81.8800 278° West 407 468 36,000  Level Cleveland Center
12:38PM 41.2128 -82.0267 278° West 407 468 36,000  Level Cleveland Center
12:39PM 41.2233 -82.1789 275° West 412 474 36,000  Level Cleveland Center
12:40PM 41.2378 -82.3283 277° West 412 474 36,000  Level Cleveland Center
12:41PM 41.2519 -82.4889 277° West 405 466 36,000  Level Cleveland Center
12:42PM 41.2642 -82.6356 276° West 405 466 36,000  Level Cleveland Center
12:43PM 41.2781 -82.7825 277° West 405 466 36,000  Level Cleveland Center
12:44PM 41.2917 -82.9322 277° West 405 466 36,000  Level Cleveland Center
12:45PM 41.3033 -83.0764 276° West 400 460 36,000  Level Cleveland Center
12:46PM 41.3144 -83.2206 276° West 400 460 36,000  Level Cleveland Center
12:47PM 41.3278 -83.3650 277° West 395 455 36,000  Level Cleveland Center
12:48PM 41.3408 -83.5119 277° West 395 455 36,000 -360 Level Cleveland Center
12:49PM 41.3536 -83.6567 277° West 400 460 35,300 -840 Descending Cleveland Center
12:50PM 41.3642 -83.8036 276° West 400 460 34,400 -960 Descending Cleveland Center
12:52PM 41.3889 -84.0867 277° West 408 470 32,500 -960 Descending Chicago Center
12:53PM 41.4019 -84.2386 277° West 413 475 31,600 -960 Descending Chicago Center
12:54PM 41.4131 -84.3933 276° West 419 482 30,600 -780 Descending Chicago Center
12:55PM 41.4253 -84.5453 276° West 415 478 30,000 -300 Descending Chicago Center
12:56PM 41.4356 -84.6911 275° West 400 460 30,000  Level Chicago Center
12:57PM 41.4458 -84.8358 275° West 394 453 30,000 -360 Level Chicago Center
12:58PM 41.4583 -85.0194 275° West 414 476 29,300 -780 Descending Chicago Center
12:59PM 41.4697 -85.1819 275° West 434 499 28,400 -960 Descending Chicago Center
01:00PM 41.4803 -85.3472 275° West 439 505 27,400 -1,020 Descending Chicago Center
01:01PM 41.4911 -85.5117 275° West 436 502 26,300 -1,560 Descending Chicago Center
01:02PM 41.5017 -85.6678 275° West 420 483 24,200 -2,340 Descending Chicago Center
01:03PM 41.5117 -85.8181 275° West 403 464 21,500 -2,700 Descending Chicago Center
01:04PM 41.5206 -85.9647 275° West 403 464 18,700 -2,700 Descending Chicago Center
01:05PM 41.5258 -86.1036 273° West 383 441 16,000 -2,460 Descending Chicago Center
01:06PM 41.5233 -86.2344 269° West 362 417 13,700 -2,400 Descending Chicago Center
01:07PM 41.5228 -86.3858 270° West 345 397 11,100 -1,500 Descending Chicago Center
01:08PM 41.5222 -86.4992 270° West 306 352 10,700 -540 Descending Chicago Center
01:09PM 41.4872 -86.5917 243° Southwest 286 329 10,000 -360 Descending Chicago Center
01:10PM 41.4417 -86.6761 234° Southwest 282 325 10,000  Level Chicago Center
01:11PM 41.4361 -86.7683 265° West 281 323 10,000  Level Chicago Center
01:12PM 41.4583 -86.8864 284° West 277 319 10,000 -480 Level Chicago Center
01:13PM 41.4781 -86.9742 287° West 258 297 9,100 -1,140 Descending Chicago Center
01:15PM 41.4950 -87.0556 286° West 237 273 7,700 -1,380 Descending Chicago Center
01:15PM 41.5167 -87.1333 290° West 232 267 6,700 -1,020 Descending Chicago TRACON
01:16PM 41.5167 -87.2167 270° West 228 262 6,000 -360 Descending Chicago TRACON
01:17PM 41.5167 -87.3000 270° West 226 260 6,000  Level Chicago TRACON
01:18PM 41.5333 -87.3667 288° West 229 264 6,000  Level Chicago TRACON
01:19PM 41.5417 -87.4019 288° West 230 265 6,000 -480 Level Chicago Center
01:20PM 41.5842 -87.4644 312° West 231 266 5,300 -540 Descending Chicago Center
01:21PM 41.6206 -87.5211 311° West 218 251 5,000 -420 Descending Chicago Center
01:22PM 41.6536 -87.5683 313° West 197 227 4,500 -900 Descending Chicago Center
01:23PM 41.6936 -87.6244 314° West 183 211 3,200 -1,200 Descending Chicago Center
01:23PM 41.7167 -87.6500 320° Northwest 174 200 2,700 -960 Descending Chicago TRACON
01:24PM 41.7500 -87.6667 340° North 181 208 1,800 -540 Descending Chicago TRACON
01:25PM 41.8000 -87.6833 346° North 167 192 1,700 -300 Descending Chicago TRACON
01:26PM 41.8167 -87.7167 304° West 152 175 1,300 -480 Descending Chicago TRACON